createdAt,value
2023-03-19T00:01:06.418Z,22.74
2023-03-19T00:06:09.440Z,22.76
2023-03-19T00:11:13.766Z,22.72
2023-03-19T00:16:17.974Z,22.70
2023-03-19T00:21:21.196Z,22.79
2023-03-19T00:26:24.142Z,22.70
2023-03-19T00:31:29.618Z,22.76
2023-03-19T00:36:32.843Z,22.75
2023-03-19T00:41:35.902Z,22.76
2023-03-19T00:46:40.073Z,22.80
2023-03-19T00:51:44.184Z,22.78
2023-03-19T00:56:47.712Z,22.83
2023-03-19T01:01:52.662Z,22.85
2023-03-19T01:06:55.617Z,22.84
2023-03-19T01:11:59.467Z,22.80
2023-03-19T01:17:03.706Z,22.74
2023-03-19T01:22:06.788Z,22.76
2023-03-19T01:27:11.471Z,22.74
2023-03-19T01:32:15.982Z,22.63
2023-03-19T01:37:40.495Z,22.67
2023-03-19T01:42:54.905Z,22.67
2023-03-19T01:48:28.838Z,22.62
2023-03-19T01:53:44.648Z,22.67
2023-03-19T01:58:57.793Z,22.70
2023-03-19T02:04:23.937Z,22.66
2023-03-19T02:09:29.035Z,22.66
2023-03-19T02:14:31.807Z,22.66
2023-03-19T02:19:41.921Z,22.69
2023-03-19T02:24:53.283Z,22.69
2023-03-19T02:29:58.902Z,22.69
2023-03-19T02:35:01.745Z,22.66
2023-03-19T02:40:08.821Z,22.63
2023-03-19T02:45:13.547Z,22.63
2023-03-19T02:50:16.592Z,22.60
2023-03-19T02:55:19.456Z,22.57
2023-03-19T03:00:23.791Z,22.55
2023-03-19T03:05:26.810Z,22.52
2023-03-19T03:10:29.970Z,22.50
2023-03-19T03:15:34.486Z,22.47
2023-03-19T03:20:37.804Z,22.45
2023-03-19T03:25:40.719Z,22.42
2023-03-19T03:30:44.875Z,22.39
2023-03-19T03:35:48.260Z,22.36
2023-03-19T03:40:52.484Z,22.35
2023-03-19T03:45:58.251Z,22.33
2023-03-19T03:51:01.774Z,22.31
2023-03-19T03:56:04.883Z,22.27
2023-03-19T04:01:09.314Z,22.24
2023-03-19T04:06:16.899Z,22.23
2023-03-19T04:11:20.613Z,22.20
2023-03-19T04:16:25.077Z,22.17
2023-03-19T04:21:28.693Z,22.13
2023-03-19T04:26:31.622Z,22.13
2023-03-19T04:31:35.708Z,22.11
2023-03-19T04:36:39.633Z,22.08
2023-03-19T04:41:42.581Z,22.07
2023-03-19T04:47:01.393Z,22.04
2023-03-19T04:52:09.520Z,22.02
2023-03-19T04:57:13.553Z,22.00
2023-03-19T05:02:19.671Z,21.97
2023-03-19T05:07:22.719Z,21.96
2023-03-19T05:12:26.999Z,21.93
2023-03-19T05:17:33.720Z,21.91
2023-03-19T05:22:56.334Z,21.89
2023-03-19T05:28:09.049Z,21.87
2023-03-19T05:33:13.414Z,21.85
2023-03-19T05:38:18.463Z,21.83
2023-03-19T05:43:29.342Z,21.82
2023-03-19T05:48:34.487Z,21.81
2023-03-19T05:53:39.519Z,21.79
2023-03-19T05:59:05.126Z,21.78
2023-03-19T06:04:14.196Z,21.77
2023-03-19T06:09:17.050Z,21.76
2023-03-19T06:14:25.356Z,21.77
2023-03-19T06:19:49.581Z,21.77
2023-03-19T06:24:52.606Z,21.76
2023-03-19T06:29:56.264Z,21.76
2023-03-19T06:35:08.630Z,21.75
2023-03-19T06:40:12.584Z,21.75
2023-03-19T06:45:18.720Z,21.76
2023-03-19T06:50:22.904Z,21.76
2023-03-19T06:55:25.764Z,21.77
2023-03-19T07:00:28.968Z,21.79
2023-03-19T07:05:33.207Z,21.78
2023-03-19T07:10:36.501Z,21.79
2023-03-19T07:15:39.599Z,21.80
2023-03-19T07:20:43.669Z,21.80
2023-03-19T07:25:47.602Z,21.81
2023-03-19T07:30:52.470Z,21.81
2023-03-19T07:35:56.602Z,21.81
2023-03-19T07:41:02.699Z,21.82
2023-03-19T07:46:06.375Z,21.84
2023-03-19T07:51:10.510Z,21.84
2023-03-19T07:56:13.667Z,21.85
2023-03-19T08:01:16.722Z,21.87
2023-03-19T08:06:20.812Z,20.06
2023-03-19T08:11:23.807Z,19.79
2023-03-19T08:16:27.024Z,20.15
2023-03-19T08:21:33.631Z,20.91
2023-03-19T08:26:37.575Z,21.07
2023-03-19T08:31:40.385Z,21.31
2023-03-19T08:36:44.504Z,21.48
2023-03-19T08:41:47.222Z,21.62
2023-03-19T08:46:50.093Z,21.67
2023-03-19T08:51:54.237Z,21.76
2023-03-19T08:56:57.191Z,21.83
2023-03-19T09:01:59.986Z,21.86
2023-03-19T09:07:04.116Z,21.92
2023-03-19T09:12:07.828Z,21.98
2023-03-19T09:17:10.964Z,22.01
2023-03-19T09:22:15.170Z,22.04
2023-03-19T09:27:19.005Z,22.07
2023-03-19T09:32:21.940Z,22.10
2023-03-19T09:37:26.260Z,22.14
2023-03-19T09:42:50.677Z,22.18
2023-03-19T09:47:58.661Z,22.21
2023-03-19T09:53:13.552Z,22.21
2023-03-19T09:58:20.281Z,22.21
2023-03-19T10:03:40.382Z,22.23
2023-03-19T10:08:59.496Z,22.25
2023-03-19T10:14:17.741Z,22.27
2023-03-19T10:19:25.651Z,22.24
2023-03-19T10:24:34.203Z,22.30
2023-03-19T10:29:37.095Z,22.35
2023-03-19T10:34:43.817Z,22.37
2023-03-19T10:39:49.312Z,22.42
2023-03-19T10:44:57.590Z,22.46
2023-03-19T10:50:00.554Z,22.48
2023-03-19T10:55:14.169Z,22.53
2023-03-19T11:00:19.688Z,22.54
2023-03-19T11:05:31.605Z,22.55
2023-03-19T11:10:37.548Z,22.59
2023-03-19T11:15:40.558Z,22.65
2023-03-19T11:20:43.687Z,22.68
2023-03-19T11:25:52.963Z,22.70
2023-03-19T11:31:03.545Z,22.73
2023-03-19T11:36:13.305Z,22.77
2023-03-19T11:41:28.073Z,22.79
2023-03-19T11:46:38.884Z,22.81
2023-03-19T11:51:48.334Z,22.13
2023-03-19T11:57:00.639Z,22.58
2023-03-19T12:02:34.026Z,22.76
2023-03-19T12:07:46.248Z,22.77
2023-03-19T12:13:04.048Z,22.91
2023-03-19T12:18:16.413Z,22.90
2023-03-19T12:23:35.904Z,22.88
2023-03-19T12:28:48.305Z,22.89
2023-03-19T12:34:00.134Z,22.84
2023-03-19T12:39:05.971Z,22.08
2023-03-19T12:44:17.395Z,22.33
2023-03-19T12:49:25.160Z,22.56
2023-03-19T12:54:34.499Z,22.68
2023-03-19T12:59:47.512Z,22.76
2023-03-19T13:04:56.913Z,22.78
2023-03-19T13:10:06.528Z,22.82
2023-03-19T13:15:17.794Z,22.83
2023-03-19T13:20:25.746Z,22.82
2023-03-19T13:25:34.017Z,22.83
2023-03-19T13:30:40.143Z,22.79
2023-03-19T13:35:46.851Z,22.79
2023-03-19T13:40:52.283Z,22.82
2023-03-19T13:46:06.525Z,22.80
2023-03-19T13:51:26.993Z,22.84
2023-03-19T13:56:30.813Z,22.84
2023-03-19T14:01:40.875Z,22.83
2023-03-19T14:06:47.091Z,22.83
2023-03-19T14:11:50.009Z,22.79
2023-03-19T14:16:54.668Z,22.96
2023-03-19T14:22:11.558Z,22.98
2023-03-19T14:27:18.282Z,22.96
2023-03-19T14:32:29.568Z,22.98
2023-03-19T14:37:42.381Z,23.01
2023-03-19T14:42:58.927Z,23.02
2023-03-19T14:48:21.840Z,23.04
2023-03-19T14:53:28.622Z,23.01
2023-03-19T14:58:31.374Z,23.03
2023-03-19T15:03:38.035Z,23.04
2023-03-19T15:08:42.705Z,23.07
2023-03-19T15:14:02.419Z,23.07
2023-03-19T15:19:10.272Z,23.07
2023-03-19T15:24:17.109Z,23.08
2023-03-19T15:29:31.754Z,23.10
2023-03-19T15:34:37.162Z,23.12
2023-03-19T15:39:46.848Z,23.10
2023-03-19T15:44:53.001Z,21.73
2023-03-19T15:50:03.494Z,21.95
2023-03-19T15:55:08.251Z,22.55
2023-03-19T16:00:15.023Z,22.80
2023-03-19T16:05:27.876Z,22.93
2023-03-19T16:10:35.170Z,23.00
2023-03-19T16:15:43.996Z,23.11
2023-03-19T16:21:02.315Z,23.17
2023-03-19T16:26:18.433Z,23.22
2023-03-19T16:31:24.812Z,23.27
2023-03-19T16:36:33.147Z,23.29
2023-03-19T16:41:37.165Z,23.33
2023-03-19T16:46:40.154Z,23.37
2023-03-19T16:51:44.455Z,23.40
2023-03-19T16:56:47.353Z,23.37
2023-03-19T17:01:50.138Z,23.46
2023-03-19T17:06:54.368Z,23.44
2023-03-19T17:11:57.194Z,23.30
2023-03-19T17:17:00.692Z,23.25
2023-03-19T17:22:05.203Z,23.42
2023-03-19T17:27:08.127Z,23.38
2023-03-19T17:32:18.707Z,23.37
2023-03-19T17:37:23.033Z,23.23
2023-03-19T17:42:26.391Z,23.10
2023-03-19T17:47:29.382Z,22.97
2023-03-19T17:52:35.402Z,23.28
2023-03-19T17:57:38.244Z,23.20
2023-03-19T18:02:42.220Z,23.15
2023-03-19T18:07:47.320Z,23.23
2023-03-19T18:12:50.644Z,23.14
2023-03-19T18:17:56.426Z,23.10
2023-03-19T18:23:00.608Z,23.12
2023-03-19T18:28:04.797Z,23.09
2023-03-19T18:33:13.491Z,23.11
2023-03-19T18:38:20.729Z,23.17
2023-03-19T18:43:23.954Z,23.13
2023-03-19T18:48:31.449Z,23.15
2023-03-19T18:53:36.078Z,23.19
2023-03-19T18:58:40.223Z,23.17
2023-03-19T19:03:43.241Z,23.20
2023-03-19T19:08:47.504Z,23.41
2023-03-19T19:13:56.258Z,23.46
2023-03-19T19:18:59.600Z,23.49
2023-03-19T19:24:03.923Z,23.43
2023-03-19T19:29:07.012Z,23.44
2023-03-19T19:34:14.012Z,23.16
2023-03-19T19:39:18.929Z,22.85
2023-03-19T19:44:23.728Z,23.21
2023-03-19T19:49:27.153Z,23.11
2023-03-19T19:54:31.355Z,23.10
2023-03-19T19:59:34.660Z,23.32
2023-03-19T20:04:37.486Z,23.19
2023-03-19T20:09:41.779Z,23.16
2023-03-19T20:14:46.803Z,23.23
2023-03-19T20:19:49.603Z,22.96
2023-03-19T20:24:53.935Z,23.30
2023-03-19T20:29:57.509Z,23.32
2023-03-19T20:35:01.128Z,23.35
2023-03-19T20:40:06.516Z,23.41
2023-03-19T20:45:17.139Z,23.29
2023-03-19T20:50:23.916Z,23.26
2023-03-19T20:55:30.765Z,23.12
2023-03-19T21:00:35.176Z,23.08
2023-03-19T21:05:39.666Z,23.09
2023-03-19T21:10:45.151Z,23.00
2023-03-19T21:15:49.710Z,23.06
2023-03-19T21:20:55.765Z,22.99
2023-03-19T21:26:01.210Z,22.98
2023-03-19T21:31:04.560Z,22.90
2023-03-19T21:36:08.641Z,23.03
2023-03-19T21:41:24.912Z,23.33
2023-03-19T21:46:30.472Z,23.34
2023-03-19T21:51:33.232Z,23.41
2023-03-19T21:56:41.718Z,23.37
2023-03-19T22:01:45.072Z,23.45
2023-03-19T22:06:49.064Z,23.48
2023-03-19T22:11:53.210Z,23.35
2023-03-19T22:16:57.204Z,23.33
2023-03-19T22:22:00.009Z,23.31
2023-03-19T22:27:04.759Z,23.36
2023-03-19T22:32:14.857Z,22.93
2023-03-19T22:37:26.710Z,23.39
2023-03-19T22:42:30.839Z,23.43
2023-03-19T22:47:38.418Z,23.38
2023-03-19T22:52:41.218Z,23.33
2023-03-19T22:57:45.733Z,23.42
2023-03-19T23:02:54.617Z,23.37
2023-03-19T23:07:57.902Z,23.41
2023-03-19T23:13:02.214Z,23.55
2023-03-19T23:18:05.233Z,23.41
2023-03-19T23:23:08.140Z,23.41
2023-03-19T23:28:20.458Z,23.41
2023-03-19T23:33:26.891Z,23.48
2023-03-19T23:38:29.806Z,23.45
2023-03-19T23:43:35.051Z,23.45
2023-03-19T23:48:39.765Z,23.47
2023-03-19T23:53:43.096Z,23.46
2023-03-19T23:58:50.202Z,23.43
